Terminal Aerodrome Forecast
Issued by NWS Wichita, KS

Home | Current Version | Previous Version | Graphics & Text | Print | Product List | Glossary On
Versions: 1 2 3 4 5 6 7 8 9 10 11 12 13 14 15 16 17 18 19 20 21 22 23 24
000
FTUS43 KICT 141720
TAFICT
TAF
KICT 141720Z 1418/1518 02005KT P6SM OVC025
     FM142100 02005KT 5SM -FZRA OVC020
     FM150400 04005KT 2SM FZRA OVC003=

USA.gov is the U.S. government's official web portal to all federal, state and local government web resources and services.